Flight Track Log - Related Links

Times and Time Zones

All times are in EDT time to prevent confusion due to time zone crossing. See the N6911P flight status page for this flight to view local times or setup timezone preferences in your user account.

Time Position Orientation Groundspeed Altitude Reporting Facility
EDT Latitude Longitude Course Direction KTS MPH feet Rate Location/Type
Sat 12:22:09 AM 35.6833 -115.4511 231° Southwest 96 110 8,800  Level Los Center
Sat 12:23:11 AM 35.6669 -115.4761 231° Southwest 95 109 9,100 244 Climbing Los Center
Sat 12:24:12 AM 35.6517 -115.5022 234° Southwest 95 109 9,300 293 Climbing Los Center
Sat 12:25:14 AM 35.6319 -115.5344 233° Southwest 96 110 9,700 341 Climbing Los Center
Sat 12:26:15 AM 35.6164 -115.5608 234° Southwest 96 110 10,000 293 Climbing Los Center
Sat 12:27:17 AM 35.5994 -115.5839 228° Southwest 93 107 10,300 244 Climbing Los Center
Sat 12:28:18 AM 35.5792 -115.6061 222° Southwest 95 109 10,500 98 Climbing Los Center
Sat 12:29:19 AM 35.5611 -115.6319 229° Southwest 99 114 10,500  Level Los Center
Sat 12:30:21 AM 35.5419 -115.6622 232° Southwest 107 123 10,500  Level Los Center
Sat 12:31:22 AM 35.5233 -115.6906 231° Southwest 108 124 10,500 49 Level Los Center
Sat 12:32:24 AM 35.5056 -115.7186 232° Southwest 105 121 10,600 49 Climbing Los Center
Sat 12:33:25 AM 35.4864 -115.7483 232° Southwest 109 125 10,600 -49 Level Los Center
Sat 12:34:27 AM 35.4683 -115.7794 235° Southwest 111 128 10,500 -49 Descending Los Center
Sat 12:35:28 AM 35.4489 -115.8156 237° Southwest 114 131 10,500 49 Level Los Center
Sat 12:36:30 AM 35.4314 -115.8461 235° Southwest 112 129 10,600 49 Climbing Los Center
Sat 12:37:31 AM 35.4139 -115.8758 234° Southwest 110 127 10,600  Level Los Center
Sat 12:38:33 AM 35.3964 -115.9064 235° Southwest 108 124 10,600  Level Los Center
Sat 12:39:34 AM 35.3744 -115.9308 222° Southwest 107 123 10,600  Level Los Center
Sat 12:40:36 AM 35.3514 -115.9533 219° Southwest 105 121 10,600  Level Los Center
Sat 12:41:37 AM 35.3253 -115.9833 223° Southwest 106 122 10,600  Level Los Center
Sat 12:42:38 AM 35.3075 -116.0122 233° Southwest 107 123 10,600  Level Los Center
Sat 12:43:40 AM 35.2869 -116.0394 227° Southwest 107 123 10,600  Level Los Center
Sat 12:44:41 AM 35.2669 -116.0672 229° Southwest 109 125 10,600  Level Los Center
Sat 12:45:43 AM 35.2489 -116.0969 233° Southwest 109 125 10,600 -49 Level Los Center
Sat 12:46:44 AM 35.2317 -116.1261 234° Southwest 108 124 10,500  Descending Los Center
Sat 12:47:46 AM 35.2150 -116.1561 236° Southwest 107 123 10,600 48 Climbing Los Center
Sat 12:48:48 AM 35.1969 -116.1867 234° Southwest 108 124 10,600  Level Los Center
Sat 12:49:49 AM 35.1736 -116.2239 233° Southwest 112 129 10,600 -49 Level Los Center
Sat 12:50:51 AM 35.1550 -116.2569 235° Southwest 115 132 10,500 -49 Descending Los Center
Sat 12:51:52 AM 35.1361 -116.2889 234° Southwest 116 133 10,500  Level Los Center
Sat 12:52:54 AM 35.1178 -116.3200 234° Southwest 115 132 10,500 49 Level Los Center
Sat 12:53:55 AM 35.0983 -116.3519 233° Southwest 115 132 10,600  Climbing Los Center
Sat 12:54:57 AM 35.0789 -116.3844 234° Southwest 117 135 10,500 -49 Descending Los Center
Sat 12:55:58 AM 35.0589 -116.4178 234° Southwest 119 137 10,500 -98 Level Los Center
Sat 12:56:59 AM 35.0408 -116.4500 236° Southwest 118 136 10,300 -195 Descending Los Center
Sat 12:58:01 AM 35.0267 -116.4944 249° West 120 138 10,100 -98 Descending Los Center
Sat 12:59:02 AM 35.0236 -116.5319 264° West 115 132 10,100  Level Los Center
Sat 01:00:04 AM 35.0206 -116.5706 264° West 114 131 10,100  Level Los Center
Sat 01:01:05 AM 35.0147 -116.6064 259° West 111 128 10,100  Level Los Center
Sat 01:02:07 AM 35.0067 -116.6431 255° West 111 128 10,100  Level Los Center
Sat 01:03:08 AM 34.9961 -116.6800 251° West 112 129 10,100 49 Level Los Center
Sat 01:04:10 AM 34.9858 -116.7156 251° West 112 129 10,200 98 Climbing Los Center
Sat 01:05:11 AM 34.9769 -116.7503 253° West 111 128 10,300 49 Climbing Los Center
Sat 01:06:12 AM 34.9717 -116.7972 262° West 113 130 10,300 -49 Level Los Center
Sat 01:07:14 AM 34.9711 -116.8364 269° West 115 132 10,200 -146 Descending Los Center
Sat 01:08:15 AM 34.9711 -116.8775 270° West 118 136 10,000 -98 Descending Los Center
Sat 01:09:17 AM 34.9675 -116.9142 263° West 115 132 10,000  Level Los Center
Sat 01:10:18 AM 34.9558 -116.9475 247° West 109 125 10,000  Level Los Center
Sat 01:11:20 AM 34.9469 -116.9839 253° West 110 127 10,000  Level Los Center
Sat 01:12:21 AM 34.9381 -117.0194 253° West 110 127 10,000 49 Level Los Center
Sat 01:13:22 AM 34.9294 -117.0542 253° West 108 124 10,100 49 Climbing Los Center
Sat 01:14:24 AM 34.9183 -117.0869 248° West 106 122 10,100  Level Los Center
Sat 01:15:25 AM 34.9031 -117.1275 245° Southwest 107 123 10,100  Level Los Center
Sat 01:16:26 AM 34.8903 -117.1614 245° Southwest 109 125 10,100  Level Los Center
Sat 01:17:28 AM 34.8789 -117.1956 248° West 109 125 10,100  Level Los Center
Sat 01:18:29 AM 34.8672 -117.2314 248° West 111 128 10,100 -49 Level Los Center
Sat 01:19:30 AM 34.8556 -117.2661 248° West 112 129 10,000 -98 Descending Los Center
Sat 01:20:31 AM 34.8439 -117.2997 247° West 110 127 9,900 33 Descending Los Center
Sat 01:22:34 AM 34.8183 -117.3661 245° Southwest 108 124 10,100 65 Climbing Los Center
Sat 01:23:35 AM 34.8092 -117.4003 252° West 108 124 10,100 -49 Level Los Center
Sat 01:24:36 AM 34.7981 -117.4333 248° West 106 122 10,000 -49 Descending Los Center
Sat 01:25:38 AM 34.7886 -117.4686 252° West 109 125 10,000 33 Level Los Center
Sat 01:27:40 AM 34.7653 -117.5464 250° West 113 130 10,100 66 Climbing Los Center
Sat 01:28:41 AM 34.7558 -117.5822 252° West 112 129 10,200  Climbing Los Center
Sat 01:29:42 AM 34.7444 -117.6164 248° West 110 127 10,100 -98 Descending Los Center
Sat 01:30:44 AM 34.7353 -117.6486 251° West 104 120 10,000  Descending Los Center
Sat 01:31:45 AM 34.7256 -117.6811 250° West 102 117 10,100 49 Climbing Los Center
Sat 01:32:46 AM 34.7164 -117.7142 251° West 103 119 10,100  Level Los Center
Sat 01:33:47 AM 34.7083 -117.7472 253° West 102 117 10,100 -49 Level Los Center
Sat 01:34:48 AM 34.7017 -117.7825 257° West 106 122 10,000 -197 Descending Los Center
Sat 01:35:49 AM 34.6928 -117.8186 253° West 110 127 9,700 -344 Descending Los Center
Sat 01:36:50 AM 34.6869 -117.8544 259° West 110 127 9,300 -344 Descending Los Center
Sat 01:37:51 AM 34.6781 -117.8908 253° West 111 128 9,000 -344 Descending Los Center
Sat 01:38:52 AM 34.6683 -117.9336 255° West 111 128 8,600 -341 Descending Los Center
Sat 01:39:54 AM 34.6617 -117.9703 258° West 110 127 8,300 -244 Descending Los Center
Sat 01:40:55 AM 34.6531 -118.0050 253° West 110 127 8,100 -98 Descending Los Center
Sat 01:41:56 AM 34.6403 -118.0381 245° Southwest 109 125 8,100 -49 Level Los Center
Sat 01:42:57 AM 34.6294 -118.0706 248° West 105 121 8,000  Descending Los Center
Sat 01:43:58 AM 34.6169 -118.1028 245° Southwest 105 121 8,100 -49 Climbing Los Center
Sat 01:44:59 AM 34.6039 -118.1361 245° Southwest 108 124 7,900 -49 Descending Los Center
Sat 01:46:00 AM 34.5936 -118.1728 251° West 106 122 8,000 98 Climbing Los Center
Sat 01:47:01 AM 34.5828 -118.2050 248° West 104 120 8,100 49 Climbing Los Center
Sat 01:48:02 AM 34.5728 -118.2400 251° West 111 128 8,100  Level Los Center
Sat 01:49:03 AM 34.5608 -118.2719 246° West 107 123 8,100 -49 Level Los Center
Sat 01:50:04 AM 34.5494 -118.3031 246° West 104 120 8,000  Descending Los Center
Sat 01:51:06 AM 34.5372 -118.3378 247° West 110 127 8,100 49 Climbing Los Center
Sat 01:52:07 AM 34.5244 -118.3678 243° Southwest 103 119 8,100  Level Los Center
Sat 01:53:08 AM 34.5106 -118.3992 242° Southwest 109 125 8,100 -98 Level Los Center
Sat 01:54:09 AM 34.4944 -118.4364 242° Southwest 105 121 7,900 -344 Descending Los Center
Sat 01:55:10 AM 34.4739 -118.4592 222° Southwest 123 142 7,400 -590 Descending Los Center
Sat 01:56:11 AM 34.4431 -118.4872 217° Southwest 117 135 6,700 -590 Descending Los Center
Sat 01:57:12 AM 34.4164 -118.5161 222° Southwest 126 145 6,200 -344 Descending Los Center
Sat 01:58:13 AM 34.3892 -118.5397 216° Southwest 121 139 6,000 -98 Descending Los Center
Sat 01:59:14 AM 34.3639 -118.5639 218° Southwest 118 136 6,000 -293 Level Los Center
Sat 02:00:16 AM 34.3314 -118.5683 186° South 143 165 5,400 -488 Descending Los Center
Sat 02:01:17 AM 34.2953 -118.5639 174° South 148 170 5,000 -197 Descending Los Center
Sat 02:02:18 AM 34.2642 -118.5581 171° South 125 144 5,000 2,459 Level Los Center
Sat 02:03:19 AM 34.2336 -118.5439 159° South 121 139 10,000 -738 Climbing Los Center
Sat 02:04:20 AM 34.2244 -118.5128 110° East 123 142 3,500 -3,541 Descending Los Center
Sat 02:05:21 AM 34.2297 -118.4758 80° East 116 133 2,800 -689 Descending Los Center
Sat 02:07:00 AM 34.2496 -118.4339 112° Southeast  Level Estimated
Sat 02:14:00 AM 34.2593 -118.4134 112° Southeast  Level Estimated
Sat 02:15:00 AM 34.2593 -118.4134 112° Southeast  Level Estimated
Sat 02:16:00 AM 34.2593 -118.4134 112° Southeast  Level Estimated
Sat 02:17:00 AM 34.2593 -118.4134 112° Southeast  Level Estimated
Sat 02:18:00 AM 34.2593 -118.4134 112° Southeast  Level Estimated
Sat 02:19:00 AM 34.2593 -118.4134 112° Southeast  Level Estimated
Sat 02:20:00 AM 34.2593 -118.4134 112° Southeast  Level Estimated
Sat 02:21:00 AM 34.2593 -118.4134 112° Southeast  Level Estimated
Sat 02:22:00 AM 34.2593 -118.4134 112° Southeast  Level Estimated
Sat 02:23:00 AM 34.2593 -118.4134 112° Southeast  Level Estimated

Login

Don't have an account? Register now (free) for customized features, flight alerts, and more!